Terminal Aerodrome Forecast
Issued by NWS Duluth, MN

Home | Current Version | Previous Version | Text Only | Print | Product List | Glossary On
Versions: 1 2 3 4 5 6 7 8 9 10 11 12 13 14 15 16 17
000
FTUS43 KDLH 012300
TAFDLH
TAF
KDLH 012332Z 0200/0224 20010KT P6SM FEW100
     FM020200 VRB03KT P6SM FEW100
     FM020700 VRB03KT 5SM BR FEW100
     FM021600 20009KT P6SM SKC
     FM021800 21011G18KT P6SM SCT100=

USA.gov is the U.S. government's official web portal to all federal, state and local government web resources and services.